createdAt,value
2019-02-15T00:00:34.829Z,14.10
2019-02-15T00:03:07.327Z,14.73
2019-02-15T00:05:38.210Z,11.17
2019-02-15T00:08:09.069Z,13.10
2019-02-15T00:10:40.026Z,17.20
2019-02-15T00:13:13.701Z,13.10
2019-02-15T00:15:43.817Z,17.63
2019-02-15T00:18:33.913Z,11.20
2019-02-15T00:21:29.949Z,10.32
2019-02-15T00:24:01.088Z,14.87
2019-02-15T00:26:31.994Z,12.37
2019-02-15T00:29:03.015Z,14.20
2019-02-15T00:31:33.798Z,12.70
2019-02-15T00:34:04.344Z,15.33
2019-02-15T00:36:34.850Z,14.20
2019-02-15T00:39:06.744Z,15.53
2019-02-15T00:41:37.462Z,13.60
2019-02-15T00:44:08.059Z,13.00
2019-02-15T00:46:58.979Z,13.37
2019-02-15T00:49:34.919Z,12.80
2019-02-15T00:52:20.730Z,17.60
2019-02-15T00:55:08.858Z,12.97
2019-02-15T00:58:07.091Z,13.57
2019-02-15T01:00:56.511Z,11.07
2019-02-15T01:03:49.029Z,15.07
2019-02-15T01:06:50.812Z,17.70
2019-02-15T01:09:43.438Z,14.47
2019-02-15T01:12:17.513Z,11.70
2019-02-15T01:14:49.353Z,12.43
2019-02-15T01:17:20.101Z,12.13
2019-02-15T01:19:50.905Z,12.97
2019-02-15T01:22:21.454Z,12.30
2019-02-15T01:24:52.484Z,13.87
2019-02-15T01:27:36.606Z,13.53
2019-02-15T01:30:25.706Z,13.40
2019-02-15T01:33:06.211Z,12.50
2019-02-15T01:35:54.641Z,13.87
2019-02-15T01:38:47.079Z,13.20
2019-02-15T01:41:39.521Z,13.17
2019-02-15T01:44:17.605Z,12.40
2019-02-15T01:46:57.504Z,9.88
2019-02-15T01:49:28.129Z,13.80
2019-02-15T01:51:59.029Z,13.45
2019-02-15T01:54:29.540Z,10.30
2019-02-15T01:57:00.357Z,13.67
2019-02-15T01:59:31.221Z,14.17
2019-02-15T02:02:02.048Z,11.18
2019-02-15T02:04:32.562Z,10.33
2019-02-15T02:07:03.392Z,14.10
2019-02-15T02:09:34.171Z,16.90
2019-02-15T02:12:05.899Z,12.73
2019-02-15T02:14:36.380Z,11.43
2019-02-15T02:17:07.111Z,10.60
2019-02-15T02:19:37.901Z,11.30
2019-02-15T02:22:08.411Z,13.13
2019-02-15T02:24:39.078Z,12.43
2019-02-15T02:27:09.614Z,11.00
2019-02-15T02:29:40.249Z,11.07
2019-02-15T02:32:10.828Z,14.13
2019-02-15T02:34:41.367Z,9.73
2019-02-15T02:37:12.049Z,10.27
2019-02-15T02:39:42.660Z,10.63
2019-02-15T02:42:13.159Z,10.43
2019-02-15T02:44:43.691Z,14.13
2019-02-15T02:47:14.210Z,11.67
2019-02-15T02:49:44.740Z,9.03
2019-02-15T02:52:15.283Z,11.77
2019-02-15T02:54:46.092Z,11.80
2019-02-15T02:57:16.651Z,8.93
2019-02-15T02:59:47.190Z,10.80
2019-02-15T03:02:17.703Z,9.83
2019-02-15T03:04:49.589Z,11.08
2019-02-15T03:07:20.117Z,10.57
2019-02-15T03:09:50.656Z,11.87
2019-02-15T03:12:21.173Z,12.73
2019-02-15T03:14:51.704Z,10.73
2019-02-15T03:17:22.374Z,9.70
2019-02-15T03:19:53.140Z,9.83
2019-02-15T03:22:23.630Z,13.10
2019-02-15T03:24:54.250Z,13.93
2019-02-15T03:27:24.772Z,12.43
2019-02-15T03:29:55.456Z,11.70
2019-02-15T03:32:26.288Z,11.87
2019-02-15T03:34:56.922Z,11.20
2019-02-15T03:37:58.626Z,11.30
2019-02-15T03:40:42.038Z,9.53
2019-02-15T03:43:12.682Z,13.83
2019-02-15T03:45:44.102Z,13.97
2019-02-15T03:48:14.665Z,10.60
2019-02-15T03:50:45.359Z,10.40
2019-02-15T03:53:15.896Z,9.87
2019-02-15T03:55:46.451Z,10.47
2019-02-15T03:58:17.174Z,11.20
2019-02-15T04:00:48.835Z,11.13
2019-02-15T04:03:19.330Z,8.53
2019-02-15T04:05:49.813Z,10.93
2019-02-15T04:08:20.371Z,10.97
2019-02-15T04:10:51.132Z,8.97
2019-02-15T04:13:21.783Z,10.70
2019-02-15T04:15:52.382Z,11.80
2019-02-15T04:18:22.876Z,11.53
2019-02-15T04:20:53.648Z,9.80
2019-02-15T04:23:24.374Z,10.80
2019-02-15T04:25:55.179Z,10.35
2019-02-15T04:28:26.797Z,13.40
2019-02-15T04:30:57.576Z,9.83
2019-02-15T04:33:28.298Z,9.87
2019-02-15T04:35:59.107Z,11.67
2019-02-15T04:38:29.642Z,9.73
2019-02-15T04:41:00.394Z,15.83
2019-02-15T04:43:31.226Z,9.65
2019-02-15T04:46:01.716Z,11.15
2019-02-15T04:48:32.329Z,11.27
2019-02-15T04:51:03.085Z,9.80
2019-02-15T04:53:33.622Z,11.33
2019-02-15T04:56:04.488Z,10.32
2019-02-15T04:58:35.393Z,11.53
2019-02-15T05:01:05.894Z,9.88
2019-02-15T05:03:36.441Z,9.67
2019-02-15T05:06:07.012Z,9.85
2019-02-15T05:08:37.580Z,11.77
2019-02-15T05:11:08.111Z,12.57
2019-02-15T05:13:39.589Z,11.83
2019-02-15T05:16:10.528Z,11.07
2019-02-15T05:18:41.322Z,12.53
2019-02-15T05:21:12.853Z,10.67
2019-02-15T05:23:43.551Z,10.37
2019-02-15T05:26:14.366Z,14.95
2019-02-15T05:28:44.934Z,11.73
2019-02-15T05:31:15.499Z,12.27
2019-02-15T05:33:45.990Z,13.63
2019-02-15T05:36:16.543Z,12.90
2019-02-15T05:38:47.102Z,12.73
2019-02-15T05:41:17.621Z,9.10
2019-02-15T05:43:49.968Z,13.66
2019-02-15T05:46:20.470Z,10.57
2019-02-15T05:48:51.706Z,13.95
2019-02-15T05:51:22.505Z,9.50
2019-02-15T05:53:53.686Z,10.70
2019-02-15T05:56:24.669Z,13.45
2019-02-15T05:58:55.515Z,10.28
2019-02-15T06:01:27.729Z,9.03
2019-02-15T06:03:58.548Z,10.57
2019-02-15T06:06:29.443Z,11.88
2019-02-15T06:09:00.164Z,12.18
2019-02-15T06:11:34.636Z,13.23
2019-02-15T06:14:05.160Z,12.13
2019-02-15T06:16:35.983Z,11.47
2019-02-15T06:19:07.684Z,12.30
2019-02-15T06:21:38.599Z,13.70
2019-02-15T06:24:09.238Z,10.20
2019-02-15T06:26:41.613Z,12.63
2019-02-15T06:29:12.229Z,11.50
2019-02-15T06:31:42.731Z,10.70
2019-02-15T06:34:13.568Z,11.50
2019-02-15T06:36:44.129Z,12.80
2019-02-15T06:39:14.779Z,12.47
2019-02-15T06:41:45.333Z,11.40
2019-02-15T06:44:16.272Z,10.57
2019-02-15T06:46:47.047Z,10.87
2019-02-15T06:49:17.694Z,8.23
2019-02-15T06:51:50.025Z,12.70
2019-02-15T06:54:20.570Z,15.40
2019-02-15T06:56:51.399Z,10.07
2019-02-15T06:59:43.895Z,9.10
2019-02-15T07:02:23.405Z,10.77
2019-02-15T07:05:09.057Z,10.90
2019-02-15T07:07:39.640Z,12.33
2019-02-15T07:10:10.446Z,11.95
2019-02-15T07:12:40.970Z,10.90
2019-02-15T07:15:11.865Z,9.33
2019-02-15T07:17:43.374Z,14.35
2019-02-15T07:20:13.900Z,13.90
2019-02-15T07:22:44.712Z,12.43
2019-02-15T07:25:15.247Z,12.40
2019-02-15T07:27:45.862Z,12.83
2019-02-15T07:30:16.886Z,14.50
2019-02-15T07:32:47.448Z,12.77
2019-02-15T07:35:18.050Z,11.80
2019-02-15T07:37:50.154Z,11.30
2019-02-15T07:40:20.718Z,10.43
2019-02-15T07:42:51.489Z,11.13
2019-02-15T07:45:22.707Z,15.50
2019-02-15T07:47:53.969Z,11.85
2019-02-15T07:50:24.754Z,18.60
2019-02-15T07:52:55.458Z,12.00
2019-02-15T07:55:25.978Z,13.23
2019-02-15T07:57:56.833Z,14.50
2019-02-15T08:00:27.844Z,14.07
2019-02-15T08:02:58.508Z,11.15
2019-02-15T08:05:29.049Z,15.87
2019-02-15T08:07:59.889Z,14.28
2019-02-15T08:10:30.669Z,14.03
2019-02-15T08:13:01.318Z,13.73
2019-02-15T08:15:36.282Z,11.23
2019-02-15T08:18:04.344Z,13.33
2019-02-15T08:20:35.513Z,11.60
2019-02-15T08:23:06.142Z,13.63
2019-02-15T08:25:36.875Z,13.63
2019-02-15T08:28:07.670Z,10.32
2019-02-15T08:30:38.228Z,11.47
2019-02-15T08:33:08.872Z,11.63
2019-02-15T08:35:39.429Z,11.43
2019-02-15T08:38:10.149Z,14.43
2019-02-15T08:40:40.817Z,13.63
2019-02-15T08:43:11.418Z,13.67
2019-02-15T08:45:42.123Z,13.13
2019-02-15T08:48:12.786Z,11.30
2019-02-15T08:50:43.375Z,12.53
2019-02-15T08:53:14.006Z,12.17
2019-02-15T08:55:44.833Z,10.85
2019-02-15T08:58:15.403Z,13.70
2019-02-15T09:00:45.995Z,13.17
2019-02-15T09:03:16.855Z,13.30
2019-02-15T09:05:47.492Z,13.50
2019-02-15T09:08:18.059Z,14.67
2019-02-15T09:10:50.432Z,16.02
2019-02-15T09:13:21.016Z,17.23
2019-02-15T09:15:52.170Z,13.95
2019-02-15T09:18:22.836Z,13.73
2019-02-15T09:20:53.670Z,16.77
2019-02-15T09:23:24.255Z,16.33
2019-02-15T09:25:55.346Z,13.58
2019-02-15T09:28:54.099Z,14.33
2019-02-15T09:31:24.891Z,14.20
2019-02-15T09:33:56.062Z,13.83
2019-02-15T09:36:26.980Z,15.47
2019-02-15T09:38:58.180Z,12.50
2019-02-15T09:41:29.020Z,14.00
2019-02-15T09:43:59.516Z,12.90
2019-02-15T09:46:30.095Z,12.47
2019-02-15T09:49:01.039Z,13.18
2019-02-15T09:51:32.883Z,14.23
2019-02-15T09:54:03.433Z,17.67
2019-02-15T09:56:34.044Z,13.33
2019-02-15T09:59:04.879Z,12.95
2019-02-15T10:01:35.426Z,14.07
2019-02-15T10:04:06.423Z,12.85
2019-02-15T10:06:37.024Z,15.70
2019-02-15T10:09:08.071Z,13.78
2019-02-15T10:11:38.650Z,15.30
2019-02-15T10:14:09.489Z,12.53
2019-02-15T10:16:40.136Z,13.53
2019-02-15T10:19:11.041Z,14.70
2019-02-15T10:21:41.622Z,12.83
2019-02-15T10:24:12.158Z,12.80
2019-02-15T10:26:42.752Z,13.10
2019-02-15T10:29:13.306Z,16.60
2019-02-15T10:31:44.134Z,13.13
2019-02-15T10:34:14.640Z,10.50
2019-02-15T10:36:45.178Z,13.30
2019-02-15T10:39:15.984Z,13.95
2019-02-15T10:41:46.572Z,13.43
2019-02-15T10:44:17.178Z,13.33
2019-02-15T10:46:48.077Z,12.53
2019-02-15T10:49:18.637Z,13.23
2019-02-15T10:51:50.347Z,9.08
2019-02-15T10:54:21.106Z,11.03
2019-02-15T10:56:51.992Z,8.93
2019-02-15T10:59:22.541Z,11.30
2019-02-15T11:01:53.397Z,9.57
2019-02-15T11:04:24.114Z,8.10
2019-02-15T11:06:54.590Z,7.50
2019-02-15T11:09:25.275Z,10.67
2019-02-15T11:11:56.286Z,9.38
2019-02-15T11:14:26.976Z,9.93
2019-02-15T11:16:57.588Z,9.20
2019-02-15T11:19:28.249Z,8.37
2019-02-15T11:21:59.026Z,7.80
2019-02-15T11:24:29.530Z,8.43
2019-02-15T11:27:02.914Z,8.70
2019-02-15T11:29:33.455Z,10.70
2019-02-15T11:32:04.899Z,7.87
2019-02-15T11:34:35.469Z,9.73
2019-02-15T11:37:06.314Z,8.93
2019-02-15T11:39:38.452Z,6.30
2019-02-15T11:42:09.348Z,10.87
2019-02-15T11:44:40.010Z,8.50
2019-02-15T11:47:10.560Z,6.73
2019-02-15T11:49:41.192Z,8.27
2019-02-15T11:52:11.826Z,8.07
2019-02-15T11:54:42.440Z,11.20
2019-02-15T11:57:14.477Z,7.67
2019-02-15T11:59:45.263Z,8.03
2019-02-15T12:02:15.892Z,6.37
2019-02-15T12:04:46.800Z,6.00
2019-02-15T12:07:17.363Z,5.77
2019-02-15T12:09:48.347Z,6.53
2019-02-15T12:12:19.240Z,7.33
2019-02-15T12:14:50.513Z,8.38
2019-02-15T12:17:21.494Z,6.57
2019-02-15T12:19:52.319Z,6.03
2019-02-15T12:22:23.232Z,6.33
2019-02-15T12:24:54.363Z,6.55
2019-02-15T12:27:25.334Z,5.87
2019-02-15T12:29:56.903Z,7.20
2019-02-15T12:32:27.473Z,8.03
2019-02-15T12:34:58.303Z,5.55
2019-02-15T12:37:29.115Z,6.30
2019-02-15T12:40:00.017Z,4.93
2019-02-15T12:42:30.553Z,6.07
2019-02-15T12:45:01.511Z,4.80
2019-02-15T12:47:32.177Z,3.40
2019-02-15T12:50:02.743Z,7.10
2019-02-15T12:52:33.418Z,4.17
2019-02-15T12:55:04.454Z,2.77
2019-02-15T12:57:35.481Z,2.80
2019-02-15T13:00:08.789Z,2.52
2019-02-15T13:02:39.442Z,2.07
2019-02-15T13:05:11.215Z,3.87
2019-02-15T13:07:41.839Z,2.33
2019-02-15T13:10:15.481Z,1.90
2019-02-15T13:12:46.404Z,2.63
2019-02-15T13:15:17.254Z,3.23
2019-02-15T13:17:49.382Z,2.40
2019-02-15T13:20:20.056Z,2.70
2019-02-15T13:22:50.835Z,1.97
2019-02-15T13:25:21.342Z,2.67
2019-02-15T13:27:52.164Z,1.83
2019-02-15T13:30:25.568Z,2.70
2019-02-15T13:32:57.216Z,3.22
2019-02-15T13:35:27.861Z,1.90
2019-02-15T13:37:58.662Z,1.87
2019-02-15T13:40:29.327Z,1.70
2019-02-15T13:43:00.467Z,2.05
2019-02-15T13:45:31.314Z,2.80
2019-02-15T13:48:02.262Z,2.67
2019-02-15T13:50:32.838Z,1.63
2019-02-15T13:53:03.760Z,2.70
2019-02-15T13:55:34.435Z,1.60
2019-02-15T13:58:04.959Z,2.85
2019-02-15T14:00:35.625Z,1.83
2019-02-15T14:03:06.644Z,2.37
2019-02-15T14:05:37.511Z,2.80
2019-02-15T14:08:08.037Z,1.90
2019-02-15T14:10:38.661Z,1.67
2019-02-15T14:13:09.459Z,1.73
2019-02-15T14:15:40.027Z,2.93
2019-02-15T14:18:10.643Z,2.83
2019-02-15T14:20:41.499Z,2.40
2019-02-15T14:23:13.981Z,3.80
2019-02-15T14:25:44.619Z,2.77
2019-02-15T14:28:15.520Z,3.33
2019-02-15T14:30:46.411Z,1.60
2019-02-15T14:33:16.951Z,2.53
2019-02-15T14:35:47.611Z,2.43
2019-02-15T14:38:18.590Z,2.95
2019-02-15T14:40:50.830Z,2.33
2019-02-15T14:43:22.942Z,1.60
2019-02-15T14:45:53.775Z,1.87
2019-02-15T14:48:24.454Z,3.30
2019-02-15T14:50:55.141Z,2.42
2019-02-15T14:53:25.719Z,2.07
2019-02-15T14:55:56.684Z,5.20
2019-02-15T14:58:27.475Z,2.13
2019-02-15T15:00:58.308Z,1.83
2019-02-15T15:03:28.884Z,5.63
2019-02-15T15:05:59.749Z,3.52
2019-02-15T15:08:30.840Z,3.13
2019-02-15T15:11:01.732Z,2.77
2019-02-15T15:13:32.541Z,3.03
2019-02-15T15:16:03.222Z,5.65
2019-02-15T15:18:33.789Z,3.63
2019-02-15T15:21:04.838Z,2.85
2019-02-15T15:23:35.659Z,2.87
2019-02-15T15:26:11.847Z,3.33
2019-02-15T15:28:38.848Z,4.10
2019-02-15T15:31:11.326Z,2.50
2019-02-15T15:33:42.011Z,3.37
2019-02-15T15:36:12.655Z,5.00
2019-02-15T15:38:43.186Z,4.33
2019-02-15T15:41:13.866Z,3.30
2019-02-15T15:43:44.614Z,2.83
2019-02-15T15:46:15.623Z,2.65
2019-02-15T15:48:46.312Z,2.00
2019-02-15T15:51:16.903Z,2.87
2019-02-15T15:53:48.066Z,4.67
2019-02-15T15:56:18.806Z,4.33
2019-02-15T15:58:51.640Z,4.80
2019-02-15T16:01:22.405Z,3.57
2019-02-15T16:03:53.103Z,3.00
2019-02-15T16:06:24.707Z,4.23
2019-02-15T16:08:55.910Z,3.50
2019-02-15T16:11:26.746Z,5.00
2019-02-15T16:13:58.169Z,2.57
2019-02-15T16:16:28.718Z,3.63
2019-02-15T16:18:59.300Z,2.05
2019-02-15T16:21:29.981Z,3.33
2019-02-15T16:24:01.043Z,2.60
2019-02-15T16:26:31.796Z,2.97
2019-02-15T16:29:07.458Z,4.35
2019-02-15T16:31:42.536Z,3.87
2019-02-15T16:34:20.785Z,3.13
2019-02-15T16:37:02.425Z,7.30
2019-02-15T16:39:44.518Z,4.13
2019-02-15T16:42:18.200Z,3.30
2019-02-15T16:44:53.027Z,5.03
2019-02-15T16:47:23.949Z,4.03
2019-02-15T16:49:56.068Z,3.50
2019-02-15T16:52:26.767Z,3.70
2019-02-15T16:54:57.446Z,3.77
2019-02-15T16:57:28.034Z,4.23
2019-02-15T16:59:58.995Z,4.28
2019-02-15T17:02:29.832Z,6.47
2019-02-15T17:05:00.715Z,4.87
2019-02-15T17:07:31.250Z,4.87
2019-02-15T17:10:02.354Z,6.60
2019-02-15T17:12:32.897Z,12.20
2019-02-15T17:15:03.636Z,7.15
2019-02-15T17:17:34.188Z,3.97
2019-02-15T17:20:05.265Z,4.50
2019-02-15T17:22:35.844Z,6.60
2019-02-15T17:25:08.266Z,4.75
2019-02-15T17:27:38.830Z,4.37
2019-02-15T17:30:10.173Z,5.00
2019-02-15T17:32:40.868Z,3.73
2019-02-15T17:35:11.422Z,5.07
2019-02-15T17:37:41.987Z,5.20
2019-02-15T17:40:13.185Z,4.57
2019-02-15T17:42:43.960Z,6.37
2019-02-15T17:45:14.976Z,4.97
2019-02-15T17:47:45.784Z,5.75
2019-02-15T17:50:16.378Z,4.67
2019-02-15T17:52:46.923Z,3.93
2019-02-15T17:55:17.837Z,6.37
2019-02-15T17:57:48.415Z,4.53
2019-02-15T18:00:21.389Z,4.13
2019-02-15T18:02:52.304Z,6.30
2019-02-15T18:05:23.245Z,5.30
2019-02-15T18:07:54.293Z,6.50
2019-02-15T18:10:24.888Z,5.73
2019-02-15T18:12:55.607Z,5.90
2019-02-15T18:15:26.141Z,7.33
2019-02-15T18:17:57.162Z,5.10
2019-02-15T18:20:28.093Z,7.70
2019-02-15T18:23:00.052Z,8.60
2019-02-15T18:25:30.899Z,5.70
2019-02-15T18:28:01.503Z,6.85
2019-02-15T18:30:32.141Z,5.53
2019-02-15T18:33:03.173Z,5.40
2019-02-15T18:35:37.058Z,5.53
2019-02-15T18:38:07.969Z,8.18
2019-02-15T18:40:38.509Z,10.00
2019-02-15T18:43:09.193Z,5.65
2019-02-15T18:45:40.047Z,9.73
2019-02-15T18:48:10.643Z,7.20
2019-02-15T18:50:41.628Z,15.77
2019-02-15T18:53:12.242Z,8.17
2019-02-15T18:55:42.961Z,7.53
2019-02-15T18:58:13.772Z,6.00
2019-02-15T19:00:44.652Z,7.40
2019-02-15T19:03:15.307Z,5.37
2019-02-15T19:05:46.330Z,9.73
2019-02-15T19:08:17.226Z,6.27
2019-02-15T19:10:48.384Z,7.17
2019-02-15T19:13:19.165Z,6.17
2019-02-15T19:15:51.306Z,8.98
2019-02-15T19:18:22.088Z,10.87
2019-02-15T19:20:53.304Z,8.50
2019-02-15T19:23:24.223Z,7.67
2019-02-15T19:25:55.168Z,6.87
2019-02-15T19:28:26.253Z,7.30
2019-02-15T19:30:57.277Z,8.33
2019-02-15T19:33:28.144Z,9.10
2019-02-15T19:35:59.348Z,6.67
2019-02-15T19:38:30.329Z,9.37
2019-02-15T19:41:01.341Z,8.80
2019-02-15T19:43:32.037Z,8.20
2019-02-15T19:46:02.638Z,9.47
2019-02-15T19:48:33.172Z,8.30
2019-02-15T19:51:04.449Z,8.65
2019-02-15T19:53:35.156Z,10.70
2019-02-15T19:56:06.086Z,10.20
2019-02-15T19:58:36.968Z,7.67
2019-02-15T20:01:07.635Z,6.92
2019-02-15T20:03:40.402Z,6.93
2019-02-15T20:06:11.198Z,6.87
2019-02-15T20:08:41.824Z,9.70
2019-02-15T20:11:12.518Z,7.73
2019-02-15T20:13:43.213Z,8.13
2019-02-15T20:16:14.106Z,9.77
2019-02-15T20:18:44.882Z,9.83
2019-02-15T20:21:15.459Z,8.10
2019-02-15T20:23:46.449Z,8.80
2019-02-15T20:26:17.542Z,9.37
2019-02-15T20:28:48.189Z,8.50
2019-02-15T20:31:20.618Z,8.63
2019-02-15T20:33:51.672Z,8.10
2019-02-15T20:36:22.546Z,11.60
2019-02-15T20:38:53.491Z,10.67
2019-02-15T20:41:24.256Z,10.57
2019-02-15T20:43:55.169Z,9.08
2019-02-15T20:46:25.719Z,10.13
2019-02-15T20:49:04.724Z,9.40
2019-02-15T20:51:31.270Z,12.67
2019-02-15T20:54:01.881Z,10.60
2019-02-15T20:56:32.664Z,10.70
2019-02-15T20:59:03.672Z,12.27
2019-02-15T21:01:34.302Z,11.73
2019-02-15T21:04:05.229Z,10.72
2019-02-15T21:06:36.254Z,15.48
2019-02-15T21:09:08.455Z,11.45
2019-02-15T21:11:39.274Z,11.45
2019-02-15T21:14:11.617Z,11.18
2019-02-15T21:16:42.291Z,9.50
2019-02-15T21:19:13.199Z,13.47
2019-02-15T21:21:43.841Z,10.37
2019-02-15T21:24:14.516Z,14.23
2019-02-15T21:26:45.337Z,13.53
2019-02-15T21:29:16.094Z,9.77
2019-02-15T21:31:46.629Z,11.00
2019-02-15T21:34:17.428Z,11.47
2019-02-15T21:36:49.687Z,11.23
2019-02-15T21:39:20.369Z,11.37
2019-02-15T21:41:52.048Z,12.95
2019-02-15T21:44:22.930Z,14.80
2019-02-15T21:46:54.747Z,10.60
2019-02-15T21:49:25.626Z,9.80
2019-02-15T21:51:56.381Z,11.90
2019-02-15T21:54:27.215Z,11.22
2019-02-15T21:56:57.800Z,9.85
2019-02-15T21:59:28.474Z,8.87
2019-02-15T22:01:59.424Z,10.95
2019-02-15T22:04:30.378Z,10.90
2019-02-15T22:07:01.024Z,12.07
2019-02-15T22:09:31.574Z,11.87
2019-02-15T22:12:02.699Z,10.23
2019-02-15T22:14:33.544Z,13.67
2019-02-15T22:17:04.350Z,11.08
2019-02-15T22:19:36.991Z,12.93
2019-02-15T22:22:07.628Z,11.57
2019-02-15T22:24:38.352Z,13.37
2019-02-15T22:27:08.989Z,13.70
2019-02-15T22:29:39.523Z,12.77
2019-02-15T22:32:10.071Z,12.63
2019-02-15T22:34:40.697Z,12.40
2019-02-15T22:37:11.455Z,12.37
2019-02-15T22:39:42.063Z,8.73
2019-02-15T22:42:14.241Z,13.63
2019-02-15T22:44:44.799Z,11.97
2019-02-15T22:47:15.636Z,14.53
2019-02-15T22:49:46.564Z,13.57
2019-02-15T22:52:17.439Z,11.57
2019-02-15T22:54:48.087Z,10.57
2019-02-15T22:57:18.652Z,11.73
2019-02-15T22:59:49.595Z,13.95
2019-02-15T23:02:20.527Z,14.97
2019-02-15T23:04:51.843Z,12.40
2019-02-15T23:07:22.416Z,13.67
2019-02-15T23:09:52.967Z,12.47
2019-02-15T23:12:23.497Z,15.17
2019-02-15T23:14:54.049Z,13.00
2019-02-15T23:17:24.708Z,13.60
2019-02-15T23:19:55.493Z,10.10
2019-02-15T23:22:26.326Z,13.53
2019-02-15T23:24:57.698Z,12.98
2019-02-15T23:27:28.452Z,11.83
2019-02-15T23:29:59.309Z,11.13
2019-02-15T23:32:29.856Z,9.73
2019-02-15T23:35:00.706Z,11.75
2019-02-15T23:37:31.507Z,11.33
2019-02-15T23:40:03.207Z,13.03
2019-02-15T23:42:33.829Z,13.57
2019-02-15T23:45:04.841Z,14.90
2019-02-15T23:47:35.692Z,16.30
2019-02-15T23:50:07.174Z,15.88
2019-02-15T23:52:37.787Z,14.17
2019-02-15T23:55:08.723Z,13.33
2019-02-15T23:57:39.626Z,13.43
